sensor_id;sensor_type;location;lat;lon;timestamp;temperature;humidity
44833;DHT22;30569;51.252;9.830;2023-06-22T00:01:53;17.20;99.90
44833;DHT22;30569;51.252;9.830;2023-06-22T00:04:19;17.10;99.90
44833;DHT22;30569;51.252;9.830;2023-06-22T00:06:44;16.50;99.90
44833;DHT22;30569;51.252;9.830;2023-06-22T00:09:10;16.40;99.90
44833;DHT22;30569;51.252;9.830;2023-06-22T00:11:36;16.50;99.90
44833;DHT22;30569;51.252;9.830;2023-06-22T00:14:02;16.60;99.90
44833;DHT22;30569;51.252;9.830;2023-06-22T00:16:28;16.80;99.90
44833;DHT22;30569;51.252;9.830;2023-06-22T00:18:53;16.80;99.90
44833;DHT22;30569;51.252;9.830;2023-06-22T00:21:19;16.90;99.90
44833;DHT22;30569;51.252;9.830;2023-06-22T00:23:47;16.90;99.90
44833;DHT22;30569;51.252;9.830;2023-06-22T00:26:13;17.00;99.90
44833;DHT22;30569;51.252;9.830;2023-06-22T00:28:39;16.90;99.90
44833;DHT22;30569;51.252;9.830;2023-06-22T00:31:05;16.80;99.90
44833;DHT22;30569;51.252;9.830;2023-06-22T00:33:30;16.80;99.90
44833;DHT22;30569;51.252;9.830;2023-06-22T00:35:57;16.70;99.90
44833;DHT22;30569;51.252;9.830;2023-06-22T00:38:22;16.70;99.90
44833;DHT22;30569;51.252;9.830;2023-06-22T00:40:48;16.80;99.90
44833;DHT22;30569;51.252;9.830;2023-06-22T00:43:14;16.60;99.90
44833;DHT22;30569;51.252;9.830;2023-06-22T00:45:39;16.30;99.90
44833;DHT22;30569;51.252;9.830;2023-06-22T00:48:06;16.40;99.90
44833;DHT22;30569;51.252;9.830;2023-06-22T00:50:33;16.30;99.90
44833;DHT22;30569;51.252;9.830;2023-06-22T00:53:01;16.50;99.90
44833;DHT22;30569;51.252;9.830;2023-06-22T00:55:29;16.60;99.90
44833;DHT22;30569;51.252;9.830;2023-06-22T00:57:54;16.50;99.90
44833;DHT22;30569;51.252;9.830;2023-06-22T01:00:21;16.60;99.90
44833;DHT22;30569;51.252;9.830;2023-06-22T01:02:50;16.50;99.90
44833;DHT22;30569;51.252;9.830;2023-06-22T01:05:18;16.50;99.90
44833;DHT22;30569;51.252;9.830;2023-06-22T01:12:52;16.70;99.90
44833;DHT22;30569;51.252;9.830;2023-06-22T01:15:28;16.70;99.90
44833;DHT22;30569;51.252;9.830;2023-06-22T01:17:56;16.50;99.90
44833;DHT22;30569;51.252;9.830;2023-06-22T01:20:23;16.60;99.90
44833;DHT22;30569;51.252;9.830;2023-06-22T01:28:41;16.60;99.90
44833;DHT22;30569;51.252;9.830;2023-06-22T01:31:09;16.60;99.90
44833;DHT22;30569;51.252;9.830;2023-06-22T01:33:38;16.70;99.90
44833;DHT22;30569;51.252;9.830;2023-06-22T01:36:05;16.50;99.90
44833;DHT22;30569;51.252;9.830;2023-06-22T01:38:32;16.50;99.90
44833;DHT22;30569;51.252;9.830;2023-06-22T01:40:59;16.50;99.90
44833;DHT22;30569;51.252;9.830;2023-06-22T01:43:26;16.40;99.90
44833;DHT22;30569;51.252;9.830;2023-06-22T01:45:56;16.20;99.90
44833;DHT22;30569;51.252;9.830;2023-06-22T01:48:22;16.30;99.90
44833;DHT22;30569;51.252;9.830;2023-06-22T01:50:49;16.50;99.90
44833;DHT22;30569;51.252;9.830;2023-06-22T01:53:14;16.50;99.90
44833;DHT22;30569;51.252;9.830;2023-06-22T01:55:40;16.70;99.90
44833;DHT22;30569;51.252;9.830;2023-06-22T01:58:06;16.60;99.90
44833;DHT22;30569;51.252;9.830;2023-06-22T02:00:37;16.70;99.90
44833;DHT22;30569;51.252;9.830;2023-06-22T02:03:17;16.80;99.90
44833;DHT22;30569;51.252;9.830;2023-06-22T02:05:54;16.90;99.90
44833;DHT22;30569;51.252;9.830;2023-06-22T02:08:24;16.90;99.90
44833;DHT22;30569;51.252;9.830;2023-06-22T02:10:52;17.00;99.90
44833;DHT22;30569;51.252;9.830;2023-06-22T02:13:18;17.00;99.90
44833;DHT22;30569;51.252;9.830;2023-06-22T02:15:45;16.90;99.90
44833;DHT22;30569;51.252;9.830;2023-06-22T02:18:12;17.00;99.90
44833;DHT22;30569;51.252;9.830;2023-06-22T02:20:39;17.20;99.90
44833;DHT22;30569;51.252;9.830;2023-06-22T02:23:06;17.30;99.90
44833;DHT22;30569;51.252;9.830;2023-06-22T02:25:32;17.50;99.90
44833;DHT22;30569;51.252;9.830;2023-06-22T02:27:58;17.50;99.90
44833;DHT22;30569;51.252;9.830;2023-06-22T02:30:24;17.50;99.90
44833;DHT22;30569;51.252;9.830;2023-06-22T02:32:49;17.60;99.90
44833;DHT22;30569;51.252;9.830;2023-06-22T02:35:27;17.70;99.90
44833;DHT22;30569;51.252;9.830;2023-06-22T02:37:57;17.70;99.90
44833;DHT22;30569;51.252;9.830;2023-06-22T02:40:23;17.70;99.90
44833;DHT22;30569;51.252;9.830;2023-06-22T02:42:48;17.60;99.90
44833;DHT22;30569;51.252;9.830;2023-06-22T02:45:14;17.80;99.90
44833;DHT22;30569;51.252;9.830;2023-06-22T02:47:39;17.80;99.90
44833;DHT22;30569;51.252;9.830;2023-06-22T02:50:05;17.90;99.90
44833;DHT22;30569;51.252;9.830;2023-06-22T02:52:31;17.90;99.90
44833;DHT22;30569;51.252;9.830;2023-06-22T02:54:56;18.00;99.90
44833;DHT22;30569;51.252;9.830;2023-06-22T02:57:22;18.00;99.90
44833;DHT22;30569;51.252;9.830;2023-06-22T02:59:47;17.90;99.90
44833;DHT22;30569;51.252;9.830;2023-06-22T03:02:13;17.50;99.90
44833;DHT22;30569;51.252;9.830;2023-06-22T03:04:38;17.70;99.90
44833;DHT22;30569;51.252;9.830;2023-06-22T03:07:04;17.90;99.90
44833;DHT22;30569;51.252;9.830;2023-06-22T03:09:30;18.00;99.90
44833;DHT22;30569;51.252;9.830;2023-06-22T03:11:56;18.00;99.90
44833;DHT22;30569;51.252;9.830;2023-06-22T03:14:21;18.00;99.90
44833;DHT22;30569;51.252;9.830;2023-06-22T03:16:47;18.10;99.90
44833;DHT22;30569;51.252;9.830;2023-06-22T03:19:13;18.10;99.90
44833;DHT22;30569;51.252;9.830;2023-06-22T03:21:39;18.20;99.90
44833;DHT22;30569;51.252;9.830;2023-06-22T03:24:06;18.40;99.90
44833;DHT22;30569;51.252;9.830;2023-06-22T03:26:31;18.50;99.90
44833;DHT22;30569;51.252;9.830;2023-06-22T03:28:57;18.60;99.90
44833;DHT22;30569;51.252;9.830;2023-06-22T03:31:23;18.60;99.90
44833;DHT22;30569;51.252;9.830;2023-06-22T03:33:49;18.50;99.90
44833;DHT22;30569;51.252;9.830;2023-06-22T03:36:16;18.50;99.90
44833;DHT22;30569;51.252;9.830;2023-06-22T03:38:45;18.60;99.90
44833;DHT22;30569;51.252;9.830;2023-06-22T03:41:11;18.20;99.90
44833;DHT22;30569;51.252;9.830;2023-06-22T03:43:37;18.40;99.90
44833;DHT22;30569;51.252;9.830;2023-06-22T03:46:02;18.60;99.90
44833;DHT22;30569;51.252;9.830;2023-06-22T03:48:28;18.70;99.90
44833;DHT22;30569;51.252;9.830;2023-06-22T03:50:54;18.60;99.90
44833;DHT22;30569;51.252;9.830;2023-06-22T03:53:19;18.60;99.90
44833;DHT22;30569;51.252;9.830;2023-06-22T03:55:49;18.70;99.90
44833;DHT22;30569;51.252;9.830;2023-06-22T03:58:16;18.70;99.90
44833;DHT22;30569;51.252;9.830;2023-06-22T04:00:41;18.90;99.90
44833;DHT22;30569;51.252;9.830;2023-06-22T04:03:07;19.00;99.90
44833;DHT22;30569;51.252;9.830;2023-06-22T04:05:32;18.90;99.90
44833;DHT22;30569;51.252;9.830;2023-06-22T04:07:58;18.90;99.90
44833;DHT22;30569;51.252;9.830;2023-06-22T04:10:24;18.90;99.90
44833;DHT22;30569;51.252;9.830;2023-06-22T04:12:49;19.00;99.90
44833;DHT22;30569;51.252;9.830;2023-06-22T04:15:15;19.00;99.90
44833;DHT22;30569;51.252;9.830;2023-06-22T04:17:40;18.90;99.90
44833;DHT22;30569;51.252;9.830;2023-06-22T04:20:06;19.10;99.90
44833;DHT22;30569;51.252;9.830;2023-06-22T04:22:33;19.10;99.90
44833;DHT22;30569;51.252;9.830;2023-06-22T04:24:58;19.20;99.90
44833;DHT22;30569;51.252;9.830;2023-06-22T04:27:24;19.20;99.90
44833;DHT22;30569;51.252;9.830;2023-06-22T04:29:49;19.20;99.90
44833;DHT22;30569;51.252;9.830;2023-06-22T04:32:16;18.90;99.90
44833;DHT22;30569;51.252;9.830;2023-06-22T04:34:42;18.90;99.90
44833;DHT22;30569;51.252;9.830;2023-06-22T04:37:08;19.00;99.90
44833;DHT22;30569;51.252;9.830;2023-06-22T04:39:34;19.10;99.90
44833;DHT22;30569;51.252;9.830;2023-06-22T04:41:59;19.20;99.90
44833;DHT22;30569;51.252;9.830;2023-06-22T04:44:26;19.20;99.90
44833;DHT22;30569;51.252;9.830;2023-06-22T04:46:52;19.10;99.90
44833;DHT22;30569;51.252;9.830;2023-06-22T04:49:20;19.10;99.90
44833;DHT22;30569;51.252;9.830;2023-06-22T04:51:47;19.10;99.90
44833;DHT22;30569;51.252;9.830;2023-06-22T04:54:13;19.30;99.90
44833;DHT22;30569;51.252;9.830;2023-06-22T04:56:38;19.40;99.90
44833;DHT22;30569;51.252;9.830;2023-06-22T04:59:06;19.20;99.90
44833;DHT22;30569;51.252;9.830;2023-06-22T05:01:32;19.40;99.90
44833;DHT22;30569;51.252;9.830;2023-06-22T05:03:58;19.60;99.90
44833;DHT22;30569;51.252;9.830;2023-06-22T05:06:27;19.30;99.90
44833;DHT22;30569;51.252;9.830;2023-06-22T05:08:56;19.40;99.90
44833;DHT22;30569;51.252;9.830;2023-06-22T05:11:26;19.60;99.90
44833;DHT22;30569;51.252;9.830;2023-06-22T05:13:52;19.70;99.90
44833;DHT22;30569;51.252;9.830;2023-06-22T05:16:17;19.80;99.90
44833;DHT22;30569;51.252;9.830;2023-06-22T05:18:52;19.90;99.90
44833;DHT22;30569;51.252;9.830;2023-06-22T05:21:22;20.00;99.90
44833;DHT22;30569;51.252;9.830;2023-06-22T05:26:14;20.10;99.90
44833;DHT22;30569;51.252;9.830;2023-06-22T05:28:40;20.30;99.90
44833;DHT22;30569;51.252;9.830;2023-06-22T05:31:05;20.00;99.90
44833;DHT22;30569;51.252;9.830;2023-06-22T05:33:31;19.70;99.90
44833;DHT22;30569;51.252;9.830;2023-06-22T05:35:56;19.10;99.90
44833;DHT22;30569;51.252;9.830;2023-06-22T05:38:22;19.20;99.90
44833;DHT22;30569;51.252;9.830;2023-06-22T05:40:47;19.60;99.90
44833;DHT22;30569;51.252;9.830;2023-06-22T05:43:13;20.10;99.90
44833;DHT22;30569;51.252;9.830;2023-06-22T05:45:38;20.40;99.90
44833;DHT22;30569;51.252;9.830;2023-06-22T05:48:05;20.50;99.90
44833;DHT22;30569;51.252;9.830;2023-06-22T05:50:30;20.70;99.90
44833;DHT22;30569;51.252;9.830;2023-06-22T05:52:56;20.70;99.90
44833;DHT22;30569;51.252;9.830;2023-06-22T05:55:21;21.20;99.90
44833;DHT22;30569;51.252;9.830;2023-06-22T05:57:47;21.60;99.90
44833;DHT22;30569;51.252;9.830;2023-06-22T06:00:13;21.40;99.90
44833;DHT22;30569;51.252;9.830;2023-06-22T06:02:40;21.40;99.90
44833;DHT22;30569;51.252;9.830;2023-06-22T06:05:13;21.20;99.90
44833;DHT22;30569;51.252;9.830;2023-06-22T06:07:40;21.10;99.90
44833;DHT22;30569;51.252;9.830;2023-06-22T06:10:06;20.90;99.90
44833;DHT22;30569;51.252;9.830;2023-06-22T06:12:32;20.80;99.90
44833;DHT22;30569;51.252;9.830;2023-06-22T06:14:58;22.30;99.90
44833;DHT22;30569;51.252;9.830;2023-06-22T06:17:23;20.40;99.90
44833;DHT22;30569;51.252;9.830;2023-06-22T06:39:32;20.90;99.90
44833;DHT22;30569;51.252;9.830;2023-06-22T06:41:58;20.80;99.90
44833;DHT22;30569;51.252;9.830;2023-06-22T06:44:23;20.90;99.90
44833;DHT22;30569;51.252;9.830;2023-06-22T06:46:49;20.90;99.90
44833;DHT22;30569;51.252;9.830;2023-06-22T06:49:14;21.00;99.90
44833;DHT22;30569;51.252;9.830;2023-06-22T06:51:40;21.20;99.90
44833;DHT22;30569;51.252;9.830;2023-06-22T06:54:05;21.40;99.90
44833;DHT22;30569;51.252;9.830;2023-06-22T06:56:31;21.70;99.90
44833;DHT22;30569;51.252;9.830;2023-06-22T06:58:58;22.10;99.90
44833;DHT22;30569;51.252;9.830;2023-06-22T07:01:24;22.20;99.90
44833;DHT22;30569;51.252;9.830;2023-06-22T07:03:49;22.10;99.90
44833;DHT22;30569;51.252;9.830;2023-06-22T07:06:15;22.00;99.90
44833;DHT22;30569;51.252;9.830;2023-06-22T07:08:41;22.00;99.90
44833;DHT22;30569;51.252;9.830;2023-06-22T07:11:08;21.80;99.90
44833;DHT22;30569;51.252;9.830;2023-06-22T07:13:33;21.80;99.90
44833;DHT22;30569;51.252;9.830;2023-06-22T07:15:59;21.80;99.90
44833;DHT22;30569;51.252;9.830;2023-06-22T07:18:25;22.00;99.90
44833;DHT22;30569;51.252;9.830;2023-06-22T07:20:52;22.00;99.90
44833;DHT22;30569;51.252;9.830;2023-06-22T07:23:17;22.20;99.90
44833;DHT22;30569;51.252;9.830;2023-06-22T07:25:43;22.20;99.90
44833;DHT22;30569;51.252;9.830;2023-06-22T07:28:09;22.20;99.90
44833;DHT22;30569;51.252;9.830;2023-06-22T07:30:35;22.60;99.90
44833;DHT22;30569;51.252;9.830;2023-06-22T07:33:01;22.90;99.90
44833;DHT22;30569;51.252;9.830;2023-06-22T07:35:29;22.90;99.90
44833;DHT22;30569;51.252;9.830;2023-06-22T07:37:55;23.20;99.90
44833;DHT22;30569;51.252;9.830;2023-06-22T07:40:20;24.50;99.90
44833;DHT22;30569;51.252;9.830;2023-06-22T07:42:46;25.10;99.90
44833;DHT22;30569;51.252;9.830;2023-06-22T07:45:13;25.30;99.90
44833;DHT22;30569;51.252;9.830;2023-06-22T07:47:39;26.00;99.90
44833;DHT22;30569;51.252;9.830;2023-06-22T07:50:05;28.70;97.00
44833;DHT22;30569;51.252;9.830;2023-06-22T07:52:31;28.90;97.10
44833;DHT22;30569;51.252;9.830;2023-06-22T07:54:57;29.80;93.90
44833;DHT22;30569;51.252;9.830;2023-06-22T07:57:23;30.60;92.50
44833;DHT22;30569;51.252;9.830;2023-06-22T07:59:57;31.50;90.60
44833;DHT22;30569;51.252;9.830;2023-06-22T08:02:23;31.50;90.30
44833;DHT22;30569;51.252;9.830;2023-06-22T08:04:48;32.30;89.90
44833;DHT22;30569;51.252;9.830;2023-06-22T08:07:14;32.60;85.20
44833;DHT22;30569;51.252;9.830;2023-06-22T08:09:46;32.70;85.00
44833;DHT22;30569;51.252;9.830;2023-06-22T08:12:12;32.90;84.70
44833;DHT22;30569;51.252;9.830;2023-06-22T08:14:38;32.40;86.00
44833;DHT22;30569;51.252;9.830;2023-06-22T08:17:04;33.10;83.10
44833;DHT22;30569;51.252;9.830;2023-06-22T08:19:30;34.40;78.60
44833;DHT22;30569;51.252;9.830;2023-06-22T08:21:56;34.40;79.50
44833;DHT22;30569;51.252;9.830;2023-06-22T08:24:22;34.50;76.50
44833;DHT22;30569;51.252;9.830;2023-06-22T08:26:51;35.70;75.50
44833;DHT22;30569;51.252;9.830;2023-06-22T08:29:16;36.70;74.50
44833;DHT22;30569;51.252;9.830;2023-06-22T08:31:42;37.50;70.70
44833;DHT22;30569;51.252;9.830;2023-06-22T08:34:07;37.30;70.30
44833;DHT22;30569;51.252;9.830;2023-06-22T08:36:33;38.40;68.60
44833;DHT22;30569;51.252;9.830;2023-06-22T08:39:03;39.10;67.50
44833;DHT22;30569;51.252;9.830;2023-06-22T08:41:29;40.60;64.60
44833;DHT22;30569;51.252;9.830;2023-06-22T08:43:55;40.50;63.90
44833;DHT22;30569;51.252;9.830;2023-06-22T08:46:21;39.50;64.80
44833;DHT22;30569;51.252;9.830;2023-06-22T08:48:49;40.30;63.60
44833;DHT22;30569;51.252;9.830;2023-06-22T08:51:16;40.70;59.50
44833;DHT22;30569;51.252;9.830;2023-06-22T08:53:42;40.60;60.30
44833;DHT22;30569;51.252;9.830;2023-06-22T08:56:08;40.30;58.30
44833;DHT22;30569;51.252;9.830;2023-06-22T08:58:34;41.10;58.90
44833;DHT22;30569;51.252;9.830;2023-06-22T09:00:59;42.00;57.30
44833;DHT22;30569;51.252;9.830;2023-06-22T09:03:26;42.40;56.50
44833;DHT22;30569;51.252;9.830;2023-06-22T09:05:52;41.10;56.70
44833;DHT22;30569;51.252;9.830;2023-06-22T09:08:18;41.20;58.70
44833;DHT22;30569;51.252;9.830;2023-06-22T09:10:43;43.30;55.60
44833;DHT22;30569;51.252;9.830;2023-06-22T09:13:09;42.90;54.40
44833;DHT22;30569;51.252;9.830;2023-06-22T09:15:34;43.60;55.70
44833;DHT22;30569;51.252;9.830;2023-06-22T09:18:00;44.10;54.70
44833;DHT22;30569;51.252;9.830;2023-06-22T09:20:26;45.40;51.50
44833;DHT22;30569;51.252;9.830;2023-06-22T09:22:51;45.80;51.90
44833;DHT22;30569;51.252;9.830;2023-06-22T09:25:17;45.40;52.40
44833;DHT22;30569;51.252;9.830;2023-06-22T09:27:46;45.80;51.00
44833;DHT22;30569;51.252;9.830;2023-06-22T09:30:11;42.00;51.90
44833;DHT22;30569;51.252;9.830;2023-06-22T09:32:37;41.70;53.40
44833;DHT22;30569;51.252;9.830;2023-06-22T09:35:05;40.40;56.20
44833;DHT22;30569;51.252;9.830;2023-06-22T09:37:31;40.00;58.50
44833;DHT22;30569;51.252;9.830;2023-06-22T09:39:57;37.90;60.00
44833;DHT22;30569;51.252;9.830;2023-06-22T09:42:22;38.60;62.30
44833;DHT22;30569;51.252;9.830;2023-06-22T09:44:48;39.30;57.00
44833;DHT22;30569;51.252;9.830;2023-06-22T09:47:13;38.40;59.00
44833;DHT22;30569;51.252;9.830;2023-06-22T09:49:39;35.80;64.60
44833;DHT22;30569;51.252;9.830;2023-06-22T09:52:05;35.80;64.20
44833;DHT22;30569;51.252;9.830;2023-06-22T09:54:31;35.30;66.00
44833;DHT22;30569;51.252;9.830;2023-06-22T09:56:56;34.80;65.30
44833;DHT22;30569;51.252;9.830;2023-06-22T09:59:22;34.70;67.80
44833;DHT22;30569;51.252;9.830;2023-06-22T10:01:47;34.20;68.10
44833;DHT22;30569;51.252;9.830;2023-06-22T10:04:13;34.50;69.30
44833;DHT22;30569;51.252;9.830;2023-06-22T10:06:38;35.00;67.50
44833;DHT22;30569;51.252;9.830;2023-06-22T10:09:06;35.50;67.60
44833;DHT22;30569;51.252;9.830;2023-06-22T10:11:33;34.20;64.20
44833;DHT22;30569;51.252;9.830;2023-06-22T10:14:00;33.60;66.90
44833;DHT22;30569;51.252;9.830;2023-06-22T10:16:31;33.40;72.30
44833;DHT22;30569;51.252;9.830;2023-06-22T10:18:57;33.20;71.60
44833;DHT22;30569;51.252;9.830;2023-06-22T10:21:22;32.90;70.70
44833;DHT22;30569;51.252;9.830;2023-06-22T10:23:48;32.30;70.90
44833;DHT22;30569;51.252;9.830;2023-06-22T10:26:13;32.50;70.30
44833;DHT22;30569;51.252;9.830;2023-06-22T10:28:39;32.50;74.10
44833;DHT22;30569;51.252;9.830;2023-06-22T10:31:04;32.50;74.50
44833;DHT22;30569;51.252;9.830;2023-06-22T10:33:30;32.70;73.10
44833;DHT22;30569;51.252;9.830;2023-06-22T10:35:55;32.60;71.00
44833;DHT22;30569;51.252;9.830;2023-06-22T10:38:21;32.80;71.50
44833;DHT22;30569;51.252;9.830;2023-06-22T10:40:46;32.00;72.10
44833;DHT22;30569;51.252;9.830;2023-06-22T10:43:12;32.20;74.60
44833;DHT22;30569;51.252;9.830;2023-06-22T10:45:37;32.10;73.60
44833;DHT22;30569;51.252;9.830;2023-06-22T10:48:03;32.30;75.50
44833;DHT22;30569;51.252;9.830;2023-06-22T10:50:29;31.50;74.60
44833;DHT22;30569;51.252;9.830;2023-06-22T10:52:55;31.10;73.20
44833;DHT22;30569;51.252;9.830;2023-06-22T10:55:20;30.80;75.60
44833;DHT22;30569;51.252;9.830;2023-06-22T10:57:46;31.00;75.50
44833;DHT22;30569;51.252;9.830;2023-06-22T11:00:13;30.90;74.00
44833;DHT22;30569;51.252;9.830;2023-06-22T11:02:39;31.00;74.10
44833;DHT22;30569;51.252;9.830;2023-06-22T11:05:05;31.00;72.70
44833;DHT22;30569;51.252;9.830;2023-06-22T11:07:31;31.00;70.90
44833;DHT22;30569;51.252;9.830;2023-06-22T11:09:58;30.90;76.00
44833;DHT22;30569;51.252;9.830;2023-06-22T11:12:23;31.00;73.90
44833;DHT22;30569;51.252;9.830;2023-06-22T11:14:49;31.00;69.40
44833;DHT22;30569;51.252;9.830;2023-06-22T11:17:17;31.30;72.60
44833;DHT22;30569;51.252;9.830;2023-06-22T11:19:44;31.40;69.60
44833;DHT22;30569;51.252;9.830;2023-06-22T11:22:10;31.50;70.60
44833;DHT22;30569;51.252;9.830;2023-06-22T11:24:35;31.30;70.20
44833;DHT22;30569;51.252;9.830;2023-06-22T11:27:01;31.20;69.50
44833;DHT22;30569;51.252;9.830;2023-06-22T11:29:26;30.90;70.80
44833;DHT22;30569;51.252;9.830;2023-06-22T11:31:52;30.80;71.30
44833;DHT22;30569;51.252;9.830;2023-06-22T11:34:17;30.70;71.00
44833;DHT22;30569;51.252;9.830;2023-06-22T11:36:44;30.70;71.40
44833;DHT22;30569;51.252;9.830;2023-06-22T11:39:10;30.70;73.90
44833;DHT22;30569;51.252;9.830;2023-06-22T11:41:37;30.70;72.80
44833;DHT22;30569;51.252;9.830;2023-06-22T11:44:02;30.90;75.30
44833;DHT22;30569;51.252;9.830;2023-06-22T11:46:29;31.30;76.20
44833;DHT22;30569;51.252;9.830;2023-06-22T11:48:55;30.90;74.90
44833;DHT22;30569;51.252;9.830;2023-06-22T11:51:21;30.80;72.90
44833;DHT22;30569;51.252;9.830;2023-06-22T11:53:46;30.70;72.40
44833;DHT22;30569;51.252;9.830;2023-06-22T11:56:12;30.80;73.50
44833;DHT22;30569;51.252;9.830;2023-06-22T11:58:37;30.60;75.40
44833;DHT22;30569;51.252;9.830;2023-06-22T12:01:03;30.80;74.80
44833;DHT22;30569;51.252;9.830;2023-06-22T12:03:28;30.80;73.20
44833;DHT22;30569;51.252;9.830;2023-06-22T12:05:55;30.90;71.70
44833;DHT22;30569;51.252;9.830;2023-06-22T12:08:21;31.20;74.50
44833;DHT22;30569;51.252;9.830;2023-06-22T12:10:48;31.10;73.10
44833;DHT22;30569;51.252;9.830;2023-06-22T12:13:15;31.20;74.60
44833;DHT22;30569;51.252;9.830;2023-06-22T12:15:41;31.00;75.40
44833;DHT22;30569;51.252;9.830;2023-06-22T12:18:06;31.10;73.90
44833;DHT22;30569;51.252;9.830;2023-06-22T12:20:32;30.70;73.00
44833;DHT22;30569;51.252;9.830;2023-06-22T12:22:57;30.70;73.80
44833;DHT22;30569;51.252;9.830;2023-06-22T12:25:23;30.60;75.40
44833;DHT22;30569;51.252;9.830;2023-06-22T12:27:49;30.80;74.50
44833;DHT22;30569;51.252;9.830;2023-06-22T12:30:16;30.80;75.10
44833;DHT22;30569;51.252;9.830;2023-06-22T12:32:41;30.70;73.60
44833;DHT22;30569;51.252;9.830;2023-06-22T12:35:07;30.40;76.20
44833;DHT22;30569;51.252;9.830;2023-06-22T12:37:37;30.00;78.10
44833;DHT22;30569;51.252;9.830;2023-06-22T12:40:03;30.10;75.40
44833;DHT22;30569;51.252;9.830;2023-06-22T12:42:30;30.20;76.60
44833;DHT22;30569;51.252;9.830;2023-06-22T12:44:55;30.00;73.30
44833;DHT22;30569;51.252;9.830;2023-06-22T12:47:21;29.90;77.30
44833;DHT22;30569;51.252;9.830;2023-06-22T12:49:46;30.00;75.70
44833;DHT22;30569;51.252;9.830;2023-06-22T12:52:12;30.00;76.10
44833;DHT22;30569;51.252;9.830;2023-06-22T12:54:37;29.90;80.70
44833;DHT22;30569;51.252;9.830;2023-06-22T12:57:03;30.00;77.20
44833;DHT22;30569;51.252;9.830;2023-06-22T12:59:29;30.50;76.00
44833;DHT22;30569;51.252;9.830;2023-06-22T13:01:54;30.50;76.50
44833;DHT22;30569;51.252;9.830;2023-06-22T13:04:20;30.70;75.80
44833;DHT22;30569;51.252;9.830;2023-06-22T13:06:46;30.90;75.30
44833;DHT22;30569;51.252;9.830;2023-06-22T13:09:14;30.40;78.40
44833;DHT22;30569;51.252;9.830;2023-06-22T13:14:06;30.40;75.90
44833;DHT22;30569;51.252;9.830;2023-06-22T13:16:31;30.60;80.60
44833;DHT22;30569;51.252;9.830;2023-06-22T13:18:57;30.40;80.00
44833;DHT22;30569;51.252;9.830;2023-06-22T13:21:22;30.30;78.30
44833;DHT22;30569;51.252;9.830;2023-06-22T13:23:48;30.20;79.60
44833;DHT22;30569;51.252;9.830;2023-06-22T13:26:13;30.30;79.60
44833;DHT22;30569;51.252;9.830;2023-06-22T13:28:39;30.30;76.40
44833;DHT22;30569;51.252;9.830;2023-06-22T13:31:05;30.30;76.40
44833;DHT22;30569;51.252;9.830;2023-06-22T13:33:31;30.40;75.50
44833;DHT22;30569;51.252;9.830;2023-06-22T13:35:56;30.20;75.00
44833;DHT22;30569;51.252;9.830;2023-06-22T13:38:22;30.10;75.50
44833;DHT22;30569;51.252;9.830;2023-06-22T13:40:48;30.30;77.70
44833;DHT22;30569;51.252;9.830;2023-06-22T13:43:14;30.30;76.70
44833;DHT22;30569;51.252;9.830;2023-06-22T13:45:41;30.60;76.70
44833;DHT22;30569;51.252;9.830;2023-06-22T13:48:07;30.50;75.10
44833;DHT22;30569;51.252;9.830;2023-06-22T13:50:33;30.70;77.60
44833;DHT22;30569;51.252;9.830;2023-06-22T13:52:58;30.60;76.80
44833;DHT22;30569;51.252;9.830;2023-06-22T13:55:24;30.70;77.50
44833;DHT22;30569;51.252;9.830;2023-06-22T13:57:49;30.60;77.00
44833;DHT22;30569;51.252;9.830;2023-06-22T14:00:16;30.20;75.30
44833;DHT22;30569;51.252;9.830;2023-06-22T14:02:42;30.30;75.80
44833;DHT22;30569;51.252;9.830;2023-06-22T14:05:08;30.40;75.60
44833;DHT22;30569;51.252;9.830;2023-06-22T14:07:34;30.30;78.30
44833;DHT22;30569;51.252;9.830;2023-06-22T14:10:00;30.30;80.10
44833;DHT22;30569;51.252;9.830;2023-06-22T14:12:26;30.30;80.60
44833;DHT22;30569;51.252;9.830;2023-06-22T14:14:51;30.20;76.40
44833;DHT22;30569;51.252;9.830;2023-06-22T14:17:17;29.90;77.20
44833;DHT22;30569;51.252;9.830;2023-06-22T14:19:43;29.40;78.40
44833;DHT22;30569;51.252;9.830;2023-06-22T14:22:08;29.50;78.40
44833;DHT22;30569;51.252;9.830;2023-06-22T14:24:34;29.60;79.00
44833;DHT22;30569;51.252;9.830;2023-06-22T14:26:59;29.50;78.10
44833;DHT22;30569;51.252;9.830;2023-06-22T14:29:28;29.20;78.60
44833;DHT22;30569;51.252;9.830;2023-06-22T14:31:53;29.20;79.10
44833;DHT22;30569;51.252;9.830;2023-06-22T14:34:19;29.10;80.20
44833;DHT22;30569;51.252;9.830;2023-06-22T14:36:44;29.00;82.00
44833;DHT22;30569;51.252;9.830;2023-06-22T14:39:10;28.80;79.70
44833;DHT22;30569;51.252;9.830;2023-06-22T14:41:35;28.60;82.30
44833;DHT22;30569;51.252;9.830;2023-06-22T14:44:01;28.70;82.20
44833;DHT22;30569;51.252;9.830;2023-06-22T14:46:26;28.70;82.90
44833;DHT22;30569;51.252;9.830;2023-06-22T14:48:52;28.60;82.30
44833;DHT22;30569;51.252;9.830;2023-06-22T14:51:18;28.70;81.30
44833;DHT22;30569;51.252;9.830;2023-06-22T14:53:44;28.70;82.20
44833;DHT22;30569;51.252;9.830;2023-06-22T14:56:10;28.10;81.80
44833;DHT22;30569;51.252;9.830;2023-06-22T14:58:36;27.90;83.60
44833;DHT22;30569;51.252;9.830;2023-06-22T15:01:02;27.80;83.30
44833;DHT22;30569;51.252;9.830;2023-06-22T15:03:29;27.80;85.20
44833;DHT22;30569;51.252;9.830;2023-06-22T15:05:57;27.70;84.20
44833;DHT22;30569;51.252;9.830;2023-06-22T15:08:23;27.40;84.80
44833;DHT22;30569;51.252;9.830;2023-06-22T15:10:49;25.60;85.40
44833;DHT22;30569;51.252;9.830;2023-06-22T15:13:14;24.90;88.00
44833;DHT22;30569;51.252;9.830;2023-06-22T15:15:40;24.20;90.40
44833;DHT22;30569;51.252;9.830;2023-06-22T15:18:05;23.90;91.20
44833;DHT22;30569;51.252;9.830;2023-06-22T15:20:31;23.90;91.30
44833;DHT22;30569;51.252;9.830;2023-06-22T15:22:57;23.90;91.00
44833;DHT22;30569;51.252;9.830;2023-06-22T15:25:23;24.00;90.80
44833;DHT22;30569;51.252;9.830;2023-06-22T15:27:49;24.30;90.60
44833;DHT22;30569;51.252;9.830;2023-06-22T15:30:14;24.60;90.30
44833;DHT22;30569;51.252;9.830;2023-06-22T15:32:43;24.60;90.50
44833;DHT22;30569;51.252;9.830;2023-06-22T15:35:10;24.40;90.60
44833;DHT22;30569;51.252;9.830;2023-06-22T15:37:36;23.90;91.50
44833;DHT22;30569;51.252;9.830;2023-06-22T15:40:01;23.40;93.00
44833;DHT22;30569;51.252;9.830;2023-06-22T15:42:28;23.50;93.20
44833;DHT22;30569;51.252;9.830;2023-06-22T15:44:53;23.70;93.00
44833;DHT22;30569;51.252;9.830;2023-06-22T15:47:19;24.10;92.60
44833;DHT22;30569;51.252;9.830;2023-06-22T15:49:47;23.90;92.60
44833;DHT22;30569;51.252;9.830;2023-06-22T15:52:13;23.90;92.90
44833;DHT22;30569;51.252;9.830;2023-06-22T15:54:43;24.00;92.80
44833;DHT22;30569;51.252;9.830;2023-06-22T15:57:08;23.90;93.00
44833;DHT22;30569;51.252;9.830;2023-06-22T15:59:38;23.90;93.00